createdAt,value
2018-03-15T00:03:26.723Z,94.47
2018-03-15T00:05:54.999Z,94.46
2018-03-15T00:08:23.348Z,94.84
2018-03-15T00:10:51.609Z,94.87
2018-03-15T00:13:20.639Z,94.33
2018-03-15T00:15:50.752Z,94.04
2018-03-15T00:18:19.025Z,94.21
2018-03-15T00:20:48.047Z,94.30
2018-03-15T00:23:16.307Z,94.56
2018-03-15T00:25:45.340Z,94.59
2018-03-15T00:28:13.607Z,94.40
2018-03-15T00:30:41.863Z,94.66
2018-03-15T00:33:10.148Z,94.33
2018-03-15T00:35:38.403Z,94.22
2018-03-15T00:38:06.656Z,94.09
2018-03-15T00:40:34.924Z,93.95
2018-03-15T00:43:03.182Z,93.88
2018-03-15T00:45:31.447Z,93.68
2018-03-15T00:47:59.700Z,94.18
2018-03-15T00:50:27.972Z,94.43
2018-03-15T00:52:56.232Z,95.14
2018-03-15T00:55:24.498Z,95.72
2018-03-15T00:57:52.759Z,95.42
2018-03-15T01:00:21.020Z,95.10
2018-03-15T01:02:51.305Z,94.94
2018-03-15T01:05:19.577Z,94.85
2018-03-15T01:07:47.835Z,94.64
2018-03-15T01:10:16.088Z,94.74
2018-03-15T01:12:45.124Z,94.51
2018-03-15T01:15:13.385Z,94.74
2018-03-15T01:17:41.644Z,94.87
2018-03-15T01:20:10.783Z,94.76
2018-03-15T01:22:39.032Z,94.73
2018-03-15T01:25:07.303Z,94.72
2018-03-15T01:27:36.325Z,94.57
2018-03-15T01:30:05.132Z,94.74
2018-03-15T01:32:33.404Z,94.75
2018-03-15T01:35:01.670Z,94.82
2018-03-15T01:37:29.924Z,94.49
2018-03-15T01:39:58.960Z,94.81
2018-03-15T01:42:27.209Z,94.82
2018-03-15T01:44:56.228Z,95.16
2018-03-15T01:47:24.504Z,94.77
2018-03-15T01:49:52.756Z,94.45
2018-03-15T01:52:21.008Z,94.60
2018-03-15T01:54:49.279Z,94.57
2018-03-15T01:57:17.539Z,94.16
2018-03-15T01:59:45.836Z,94.73
2018-03-15T02:02:14.076Z,94.63
2018-03-15T02:04:43.099Z,94.58
2018-03-15T02:07:11.399Z,94.51
2018-03-15T02:09:40.362Z,94.70
2018-03-15T02:12:09.389Z,93.94
2018-03-15T02:14:37.644Z,94.06
2018-03-15T02:17:05.896Z,94.21
2018-03-15T02:19:34.149Z,94.45
2018-03-15T02:22:02.802Z,94.33
2018-03-15T02:24:31.045Z,94.03
2018-03-15T02:26:59.304Z,94.04
2018-03-15T02:29:27.624Z,93.40
2018-03-15T02:31:56.268Z,93.56
2018-03-15T02:34:24.529Z,93.37
2018-03-15T02:36:52.795Z,93.29
2018-03-15T02:39:21.062Z,93.85
2018-03-15T02:41:49.325Z,94.14
2018-03-15T02:44:18.360Z,93.78
2018-03-15T02:46:46.612Z,94.29
2018-03-15T02:49:15.652Z,94.41
2018-03-15T02:51:43.909Z,94.24
2018-03-15T02:54:12.180Z,94.20
2018-03-15T02:56:40.444Z,94.46
2018-03-15T02:59:09.471Z,94.40
2018-03-15T03:01:37.740Z,94.31
2018-03-15T03:04:06.008Z,94.25
2018-03-15T03:06:35.036Z,94.26
2018-03-15T03:09:03.284Z,94.32
2018-03-15T03:11:32.316Z,94.21
2018-03-15T03:14:00.577Z,94.23
2018-03-15T03:16:29.597Z,94.43
2018-03-15T03:18:57.852Z,94.03
2018-03-15T03:21:26.111Z,94.53
2018-03-15T03:23:55.143Z,94.00
2018-03-15T03:26:23.400Z,93.45
2018-03-15T03:28:53.671Z,93.76
2018-03-15T03:31:21.944Z,94.31
2018-03-15T03:33:50.212Z,94.81
2018-03-15T03:36:18.478Z,94.70
2018-03-15T03:38:47.503Z,94.57
2018-03-15T03:41:15.770Z,94.81
2018-03-15T03:43:44.021Z,94.56
2018-03-15T03:46:13.048Z,94.63
2018-03-15T03:48:41.308Z,94.50
2018-03-15T03:51:10.340Z,94.34
2018-03-15T03:53:38.600Z,94.35
2018-03-15T03:56:07.091Z,94.82
2018-03-15T03:58:35.369Z,94.92
2018-03-15T04:01:03.624Z,94.19
2018-03-15T04:03:32.650Z,94.43
2018-03-15T04:06:02.165Z,94.61
2018-03-15T04:08:30.423Z,94.73
2018-03-15T04:10:59.482Z,94.49
2018-03-15T04:13:27.737Z,94.54
2018-03-15T04:15:55.987Z,94.24
2018-03-15T04:18:24.288Z,94.58
2018-03-15T04:20:52.539Z,94.15
2018-03-15T04:23:20.803Z,94.13
2018-03-15T04:25:49.080Z,93.82
2018-03-15T04:28:17.325Z,93.15
2018-03-15T04:30:45.580Z,93.74
2018-03-15T04:33:13.849Z,94.27
2018-03-15T04:35:42.135Z,94.80
2018-03-15T04:38:10.373Z,94.49
2018-03-15T04:40:38.628Z,94.46
2018-03-15T04:43:06.908Z,94.61
2018-03-15T04:45:35.165Z,94.70
2018-03-15T04:48:03.436Z,94.72
2018-03-15T04:50:31.688Z,94.58
2018-03-15T04:53:00.716Z,94.61
2018-03-15T04:55:28.989Z,94.43
2018-03-15T04:57:57.242Z,94.26
2018-03-15T05:00:25.508Z,94.09
2018-03-15T05:02:53.780Z,94.25
2018-03-15T05:05:22.028Z,94.63
2018-03-15T05:07:50.287Z,94.54
2018-03-15T05:10:18.568Z,94.63
2018-03-15T05:12:47.590Z,94.85
2018-03-15T05:15:15.887Z,94.84
2018-03-15T05:17:44.163Z,94.49
2018-03-15T05:20:12.422Z,93.98
2018-03-15T05:22:40.677Z,94.34
2018-03-15T05:25:09.732Z,94.14
2018-03-15T05:27:37.976Z,94.12
2018-03-15T05:30:06.236Z,94.05
2018-03-15T05:32:35.463Z,93.78
2018-03-15T05:35:03.717Z,94.00
2018-03-15T05:37:32.751Z,94.10
2018-03-15T05:40:01.028Z,93.75
2018-03-15T05:42:29.322Z,93.34
2018-03-15T05:44:57.580Z,93.13
2018-03-15T05:47:25.872Z,92.67
2018-03-15T05:49:54.124Z,92.82
2018-03-15T05:52:23.145Z,91.50
2018-03-15T05:54:51.407Z,92.59
2018-03-15T05:57:19.720Z,92.02
2018-03-15T05:59:47.973Z,91.84
2018-03-15T06:02:16.238Z,89.81
2018-03-15T06:04:45.272Z,90.04
2018-03-15T06:07:13.533Z,89.27
2018-03-15T06:09:41.781Z,87.00
2018-03-15T06:12:10.054Z,87.26
2018-03-15T06:14:38.309Z,86.34
2018-03-15T06:17:06.584Z,85.45
2018-03-15T06:19:34.840Z,84.93
2018-03-15T06:22:03.084Z,83.97
2018-03-15T06:24:31.360Z,82.51
2018-03-15T06:26:59.626Z,81.75
2018-03-15T06:29:27.880Z,79.42
2018-03-15T06:31:56.153Z,77.87
2018-03-15T06:34:24.400Z,74.89
2018-03-15T06:36:53.416Z,67.38
2018-03-15T06:39:21.698Z,62.13
2018-03-15T06:41:49.944Z,57.19
2018-03-15T06:44:18.189Z,53.67
2018-03-15T06:46:46.451Z,49.84
2018-03-15T06:49:14.724Z,46.25
2018-03-15T06:51:44.215Z,43.23
2018-03-15T06:54:13.261Z,44.42
2018-03-15T06:56:41.491Z,42.78
2018-03-15T06:59:10.512Z,43.61
2018-03-15T07:01:38.764Z,46.98
2018-03-15T07:04:07.782Z,50.00
2018-03-15T07:06:36.037Z,48.00
2018-03-15T07:09:05.052Z,44.83
2018-03-15T07:11:33.309Z,42.12
2018-03-15T07:14:02.328Z,42.13
2018-03-15T07:16:30.576Z,43.67
2018-03-15T07:18:58.831Z,43.44
2018-03-15T07:21:27.086Z,47.15
2018-03-15T07:23:55.337Z,49.27
2018-03-15T07:26:24.357Z,45.29
2018-03-15T07:28:52.604Z,40.92
2018-03-15T07:31:21.638Z,39.77
2018-03-15T07:33:49.879Z,36.62
2018-03-15T07:36:18.124Z,34.67
2018-03-15T07:38:46.379Z,34.18
2018-03-15T07:41:14.643Z,37.36
2018-03-15T07:43:43.664Z,41.18
2018-03-15T07:46:11.916Z,41.09
2018-03-15T07:48:40.940Z,40.65
2018-03-15T07:51:09.196Z,39.73
2018-03-15T07:53:38.203Z,41.78
2018-03-15T07:56:06.457Z,42.13
2018-03-15T07:58:35.468Z,43.22
2018-03-15T08:01:04.491Z,44.85
2018-03-15T08:03:32.732Z,47.29
2018-03-15T08:06:01.744Z,50.47
2018-03-15T08:08:30.768Z,54.44
2018-03-15T08:10:59.011Z,58.07
2018-03-15T08:13:28.021Z,58.51
2018-03-15T08:15:57.037Z,58.80
2018-03-15T08:18:25.276Z,57.08
2018-03-15T08:20:53.509Z,57.99
2018-03-15T08:23:21.755Z,56.11
2018-03-15T08:25:50.764Z,57.32
2018-03-15T08:28:19.020Z,55.67
2018-03-15T08:30:48.068Z,53.63
2018-03-15T08:33:16.327Z,54.77
2018-03-15T08:35:44.568Z,53.53
2018-03-15T08:38:12.837Z,50.75
2018-03-15T08:40:41.078Z,50.20
2018-03-15T08:43:09.326Z,52.62
2018-03-15T08:45:39.591Z,53.67
2018-03-15T08:48:07.832Z,51.29
2018-03-15T08:50:36.847Z,50.59
2018-03-15T08:53:05.100Z,52.54
2018-03-15T08:55:34.124Z,50.20
2018-03-15T08:58:02.363Z,48.25
2018-03-15T09:00:30.624Z,50.20
2018-03-15T09:03:00.700Z,49.36
2018-03-15T09:05:29.716Z,48.57
2018-03-15T09:07:57.981Z,44.67
2018-03-15T09:10:26.984Z,41.42
2018-03-15T09:12:55.238Z,44.49
2018-03-15T09:15:24.262Z,50.18
2018-03-15T09:17:52.509Z,51.97
2018-03-15T09:20:20.748Z,45.51
2018-03-15T09:22:49.007Z,43.01
2018-03-15T09:25:17.254Z,44.10
2018-03-15T09:27:45.487Z,39.87
2018-03-15T09:30:13.752Z,36.92
2018-03-15T09:32:42.009Z,37.21
2018-03-15T09:35:10.272Z,44.77
2018-03-15T09:37:38.512Z,42.12
2018-03-15T09:40:06.764Z,41.82
2018-03-15T09:42:35.004Z,43.74
2018-03-15T09:45:03.378Z,46.58
2018-03-15T09:47:31.615Z,46.17
2018-03-15T09:49:59.860Z,45.55
2018-03-15T09:52:28.882Z,43.68
2018-03-15T09:54:57.148Z,45.42
2018-03-15T09:57:26.162Z,44.32
2018-03-15T09:59:54.428Z,41.27
2018-03-15T10:02:23.435Z,39.97
2018-03-15T10:04:51.681Z,38.02
2018-03-15T10:07:19.939Z,39.79
2018-03-15T10:09:48.213Z,45.78
2018-03-15T10:12:16.456Z,43.47
2018-03-15T10:14:44.701Z,41.35
2018-03-15T10:17:12.969Z,42.57
2018-03-15T10:19:41.204Z,38.34
2018-03-15T10:22:09.535Z,36.55
2018-03-15T10:24:38.488Z,33.00
2018-03-15T10:27:06.732Z,31.80
2018-03-15T10:29:35.764Z,34.87
2018-03-15T10:32:04.012Z,33.34
2018-03-15T10:34:33.038Z,31.87
2018-03-15T10:37:02.137Z,32.80
2018-03-15T10:39:30.386Z,32.99
2018-03-15T10:41:59.414Z,37.43
2018-03-15T10:44:27.684Z,38.77
2018-03-15T10:46:55.928Z,34.97
2018-03-15T10:49:24.190Z,34.61
2018-03-15T10:51:52.811Z,41.07
2018-03-15T10:54:21.826Z,39.04
2018-03-15T10:56:50.086Z,32.14
2018-03-15T10:59:18.352Z,34.64
2018-03-15T11:01:52.117Z,36.13
2018-03-15T11:07:28.217Z,31.32
2018-03-15T11:09:56.740Z,32.11
2018-03-15T11:12:24.995Z,25.13
2018-03-15T11:14:53.242Z,25.88
2018-03-15T11:17:21.512Z,24.14
2018-03-15T11:19:49.764Z,28.18
2018-03-15T11:22:18.770Z,23.74
2018-03-15T11:24:47.243Z,24.11
2018-03-15T11:27:16.257Z,25.98
2018-03-15T11:29:44.511Z,23.17
2018-03-15T11:32:13.541Z,23.93
2018-03-15T11:34:41.792Z,30.71
2018-03-15T11:37:10.803Z,30.99
2018-03-15T11:39:39.648Z,26.40
2018-03-15T11:42:07.896Z,26.16
2018-03-15T11:44:36.141Z,22.20
2018-03-15T11:47:05.164Z,27.86
2018-03-15T11:49:33.428Z,30.79
2018-03-15T11:52:02.444Z,32.37
2018-03-15T11:54:30.703Z,35.14
2018-03-15T11:56:59.724Z,31.58
2018-03-15T11:59:27.988Z,32.26
2018-03-15T12:01:56.251Z,37.94
2018-03-15T12:04:25.280Z,39.28
2018-03-15T12:06:53.541Z,38.57
2018-03-15T12:09:22.553Z,35.15
2018-03-15T12:11:50.932Z,34.65
2018-03-15T12:14:19.180Z,36.82
2018-03-15T12:16:47.468Z,36.13
2018-03-15T12:19:16.484Z,37.57
2018-03-15T12:21:44.737Z,38.39
2018-03-15T12:24:13.001Z,36.08
2018-03-15T12:26:41.247Z,36.64
2018-03-15T12:29:09.504Z,31.14
2018-03-15T12:31:37.769Z,33.75
2018-03-15T12:34:06.780Z,30.06
2018-03-15T12:36:35.805Z,30.71
2018-03-15T12:39:04.059Z,31.61
2018-03-15T12:41:32.324Z,30.39
2018-03-15T12:44:01.340Z,29.47
2018-03-15T12:46:29.616Z,31.02
2018-03-15T12:48:58.625Z,32.49
2018-03-15T12:51:26.868Z,35.36
2018-03-15T12:53:55.142Z,36.61
2018-03-15T12:56:23.390Z,37.81
2018-03-15T12:58:51.632Z,40.98
2018-03-15T13:01:20.664Z,38.93
2018-03-15T13:03:48.932Z,40.02
2018-03-15T13:06:17.175Z,41.42
2018-03-15T13:08:46.208Z,42.20
2018-03-15T13:11:14.457Z,43.29
2018-03-15T13:13:43.464Z,43.42
2018-03-15T13:16:12.487Z,43.78
2018-03-15T13:18:40.736Z,44.93
2018-03-15T13:21:09.748Z,45.11
2018-03-15T13:23:39.593Z,45.01
2018-03-15T13:26:07.840Z,45.32
2018-03-15T13:28:36.092Z,45.36
2018-03-15T13:31:04.868Z,45.82
2018-03-15T13:33:33.134Z,45.94
2018-03-15T13:36:01.382Z,46.71
2018-03-15T13:38:29.642Z,47.77
2018-03-15T13:40:58.668Z,46.84
2018-03-15T13:43:27.704Z,46.32
2018-03-15T13:45:55.950Z,46.73
2018-03-15T13:48:24.193Z,47.17
2018-03-15T13:50:53.420Z,47.46
2018-03-15T13:53:21.669Z,47.64
2018-03-15T13:55:49.916Z,47.74
2018-03-15T13:58:18.190Z,50.57
2018-03-15T14:00:46.436Z,49.24
2018-03-15T14:03:14.688Z,48.76
2018-03-15T14:05:42.941Z,48.51
2018-03-15T14:08:11.195Z,48.43
2018-03-15T14:10:39.467Z,49.20
2018-03-15T14:13:07.732Z,49.27
2018-03-15T14:15:36.001Z,49.30
2018-03-15T14:18:05.012Z,49.55
2018-03-15T14:20:33.417Z,49.24
2018-03-15T14:23:01.680Z,51.96
2018-03-15T14:25:30.680Z,52.63
2018-03-15T14:27:58.949Z,52.38
2018-03-15T14:30:27.981Z,53.77
2018-03-15T14:32:56.239Z,53.12
2018-03-15T14:35:24.494Z,53.47
2018-03-15T14:37:52.764Z,54.87
2018-03-15T14:40:21.013Z,55.27
2018-03-15T14:42:49.267Z,54.10
2018-03-15T14:45:17.556Z,55.29
2018-03-15T14:47:45.851Z,53.74
2018-03-15T14:50:14.098Z,54.46
2018-03-15T14:52:42.365Z,54.07
2018-03-15T14:55:11.385Z,53.54
2018-03-15T14:57:39.640Z,53.00
2018-03-15T15:00:08.667Z,52.54
2018-03-15T15:02:36.917Z,53.20
2018-03-15T15:05:07.184Z,52.39
2018-03-15T15:07:35.432Z,53.23
2018-03-15T15:10:04.449Z,53.47
2018-03-15T15:12:32.712Z,55.46
2018-03-15T15:15:01.718Z,53.38
2018-03-15T15:17:29.973Z,53.27
2018-03-15T15:19:59.002Z,53.64
2018-03-15T15:22:27.265Z,53.49
2018-03-15T15:24:56.281Z,54.19
2018-03-15T15:27:24.550Z,54.27
2018-03-15T15:29:53.551Z,54.04
2018-03-15T15:32:21.796Z,54.20
2018-03-15T15:34:50.060Z,54.66
2018-03-15T15:37:18.332Z,54.64
2018-03-15T15:39:47.359Z,56.65
2018-03-15T15:42:16.372Z,57.21
2018-03-15T15:44:45.400Z,58.47
2018-03-15T15:47:13.648Z,58.05
2018-03-15T15:49:42.655Z,57.35
2018-03-15T15:52:10.919Z,58.21
2018-03-15T15:54:39.941Z,59.00
2018-03-15T15:57:08.197Z,60.15
2018-03-15T15:59:37.204Z,61.08
2018-03-15T16:02:05.460Z,60.79
2018-03-15T16:04:33.711Z,60.46
2018-03-15T16:07:01.956Z,61.52
2018-03-15T16:09:30.222Z,57.97
2018-03-15T16:11:58.765Z,59.94
2018-03-15T16:14:27.021Z,59.37
2018-03-15T16:16:55.276Z,58.83
2018-03-15T16:19:23.516Z,61.61
2018-03-15T16:21:51.774Z,59.78
2018-03-15T16:24:20.030Z,59.75
2018-03-15T16:26:48.268Z,60.87
2018-03-15T16:29:16.510Z,62.98
2018-03-15T16:31:44.774Z,62.60
2018-03-15T16:34:13.033Z,62.55
2018-03-15T16:36:42.043Z,62.70
2018-03-15T16:39:10.296Z,59.57
2018-03-15T16:41:39.310Z,62.13
2018-03-15T16:44:08.366Z,59.74
2018-03-15T16:46:36.625Z,60.23
2018-03-15T16:49:04.880Z,61.96
2018-03-15T16:51:33.132Z,61.39
2018-03-15T16:54:02.180Z,61.53
2018-03-15T16:56:30.439Z,64.02
2018-03-15T16:58:58.682Z,62.49
2018-03-15T17:01:26.961Z,61.09
2018-03-15T17:03:55.195Z,62.56
2018-03-15T17:06:23.468Z,64.07
2018-03-15T17:08:51.742Z,65.60
2018-03-15T17:11:20.023Z,64.51
2018-03-15T17:13:48.285Z,64.55
2018-03-15T17:16:17.345Z,62.40
2018-03-15T17:18:45.597Z,62.79
2018-03-15T17:21:13.853Z,64.69
2018-03-15T17:23:42.112Z,66.56
2018-03-15T17:26:11.144Z,67.14
2018-03-15T17:28:40.173Z,67.53
2018-03-15T17:31:09.120Z,68.47
2018-03-15T17:33:38.145Z,68.53
2018-03-15T17:36:06.417Z,69.60
2018-03-15T17:38:34.700Z,68.04
2018-03-15T17:41:02.978Z,69.63
2018-03-15T17:43:31.226Z,70.49
2018-03-15T17:46:01.499Z,71.34
2018-03-15T17:48:29.769Z,71.26
2018-03-15T17:50:58.057Z,70.67
2018-03-15T17:53:26.324Z,71.35
2018-03-15T17:55:54.596Z,71.61
2018-03-15T17:58:22.855Z,72.16
2018-03-15T18:00:51.877Z,73.27
2018-03-15T18:03:20.158Z,73.26
2018-03-15T18:05:48.420Z,73.30
2018-03-15T18:08:17.441Z,73.31
2018-03-15T18:10:45.711Z,70.75
2018-03-15T18:13:14.728Z,69.87
2018-03-15T18:15:43.046Z,72.01
2018-03-15T18:18:11.276Z,72.90
2018-03-15T18:20:39.557Z,73.42
2018-03-15T18:23:07.806Z,70.82
2018-03-15T18:25:36.840Z,70.59
2018-03-15T18:28:05.103Z,71.62
2018-03-15T18:30:33.376Z,70.79
2018-03-15T18:33:02.479Z,72.04
2018-03-15T18:35:30.673Z,71.52
2018-03-15T18:37:58.966Z,71.32
2018-03-15T18:40:27.224Z,72.25
2018-03-15T18:42:55.481Z,73.44
2018-03-15T18:45:23.724Z,74.10
2018-03-15T18:47:51.980Z,71.83
2018-03-15T18:50:20.237Z,72.47
2018-03-15T18:52:49.245Z,73.73
2018-03-15T18:55:17.509Z,74.25
2018-03-15T18:57:46.532Z,74.36
2018-03-15T19:00:15.539Z,74.32
2018-03-15T19:02:43.781Z,75.14
2018-03-15T19:05:12.811Z,74.32
2018-03-15T19:07:41.048Z,74.90
2018-03-15T19:10:09.305Z,75.45
2018-03-15T19:12:37.559Z,75.07
2018-03-15T19:15:05.822Z,76.01
2018-03-15T19:17:34.086Z,75.40
2018-03-15T19:20:03.093Z,74.89
2018-03-15T19:22:32.126Z,74.83
2018-03-15T19:25:00.413Z,75.42
2018-03-15T19:27:28.662Z,75.28
2018-03-15T19:29:56.921Z,75.22
2018-03-15T19:32:25.933Z,75.99
2018-03-15T19:34:54.240Z,76.64
2018-03-15T19:37:22.488Z,75.89
2018-03-15T19:39:51.499Z,76.79
2018-03-15T19:42:19.748Z,77.02
2018-03-15T19:44:48.790Z,76.22
2018-03-15T19:47:17.057Z,75.80
2018-03-15T19:49:45.300Z,76.95
2018-03-15T19:52:13.548Z,77.82
2018-03-15T19:54:41.822Z,78.75
2018-03-15T19:57:10.071Z,78.62
2018-03-15T19:59:38.324Z,78.41
2018-03-15T20:02:06.576Z,78.63
2018-03-15T20:04:34.824Z,79.18
2018-03-15T20:07:03.121Z,79.06
2018-03-15T20:09:32.093Z,78.63
2018-03-15T20:12:00.349Z,79.20
2018-03-15T20:14:29.373Z,79.07
2018-03-15T20:16:57.633Z,77.51
2018-03-15T20:19:26.652Z,78.20
2018-03-15T20:21:55.684Z,79.08
2018-03-15T20:24:29.341Z,78.89
2018-03-15T20:26:58.364Z,78.51
2018-03-15T20:29:26.620Z,75.51
2018-03-15T20:31:54.864Z,74.90
2018-03-15T20:34:23.129Z,76.47
2018-03-15T20:36:51.372Z,76.09
2018-03-15T20:39:25.148Z,76.62
2018-03-15T20:41:54.319Z,76.67
2018-03-15T20:44:22.564Z,75.59
2018-03-15T20:46:56.356Z,77.16
2018-03-15T20:49:26.600Z,76.20
2018-03-15T20:51:54.856Z,76.78
2018-03-15T20:54:23.883Z,77.22
2018-03-15T20:56:52.132Z,77.25
2018-03-15T20:59:21.154Z,77.58
2018-03-15T21:01:49.412Z,78.93
2018-03-15T21:04:17.668Z,77.58
2018-03-15T21:06:45.916Z,78.76
2018-03-15T21:09:14.176Z,78.72
2018-03-15T21:11:42.445Z,76.97
2018-03-15T21:14:10.696Z,77.63
2018-03-15T21:16:39.711Z,77.03
2018-03-15T21:19:08.732Z,77.31
2018-03-15T21:21:36.971Z,76.56
2018-03-15T21:24:05.988Z,76.83
2018-03-15T21:26:35.007Z,77.03
2018-03-15T21:29:03.253Z,76.35
2018-03-15T21:31:32.273Z,77.12
2018-03-15T21:34:00.534Z,75.93
2018-03-15T21:36:29.540Z,75.82
2018-03-15T21:38:57.796Z,74.69
2018-03-15T21:41:26.200Z,74.86
2018-03-15T21:43:54.494Z,74.90
2018-03-15T21:46:22.740Z,74.71
2018-03-15T21:48:51.000Z,73.93
2018-03-15T21:51:19.259Z,73.78
2018-03-15T21:53:47.509Z,73.02
2018-03-15T21:56:15.752Z,73.37
2018-03-15T21:58:44.008Z,73.56
2018-03-15T22:01:12.257Z,75.27
2018-03-15T22:03:40.792Z,75.58
2018-03-15T22:06:09.229Z,74.68
2018-03-15T22:08:37.517Z,75.29
2018-03-15T22:11:05.803Z,77.23
2018-03-15T22:13:34.101Z,75.07
2018-03-15T22:16:02.392Z,77.64
2018-03-15T22:18:30.683Z,74.78
2018-03-15T22:20:59.472Z,77.21
2018-03-15T22:23:27.778Z,77.12
2018-03-15T22:25:56.114Z,77.22
2018-03-15T22:28:24.406Z,76.53
2018-03-15T22:30:52.679Z,73.58
2018-03-15T22:33:20.974Z,74.10
2018-03-15T22:35:49.290Z,71.18
2018-03-15T22:38:17.583Z,70.76
2018-03-15T22:40:46.667Z,74.79
2018-03-15T22:43:14.965Z,75.14
2018-03-15T22:45:44.028Z,76.65
2018-03-15T22:48:12.330Z,71.75
2018-03-15T22:50:41.405Z,73.74
2018-03-15T22:53:09.703Z,74.31
2018-03-15T22:55:38.194Z,74.56
2018-03-15T22:58:06.434Z,72.45
2018-03-15T23:00:34.722Z,72.42
2018-03-15T23:03:03.042Z,72.56
2018-03-15T23:05:32.091Z,72.74
2018-03-15T23:08:00.393Z,72.34
2018-03-15T23:10:28.698Z,73.02
2018-03-15T23:12:56.994Z,74.98
2018-03-15T23:15:26.046Z,75.89
2018-03-15T23:17:54.330Z,75.86
2018-03-15T23:20:22.632Z,76.33
2018-03-15T23:22:50.910Z,75.41
2018-03-15T23:25:19.199Z,78.60
2018-03-15T23:27:48.271Z,79.90
2018-03-15T23:30:16.550Z,78.53
2018-03-15T23:32:44.850Z,78.28
2018-03-15T23:35:13.135Z,78.67
2018-03-15T23:37:41.453Z,79.57
2018-03-15T23:40:09.736Z,79.62
2018-03-15T23:42:38.054Z,80.05
2018-03-15T23:45:06.344Z,81.04
2018-03-15T23:47:34.644Z,81.00
2018-03-15T23:50:03.701Z,82.98
2018-03-15T23:52:31.980Z,80.67
2018-03-15T23:55:00.264Z,80.92
2018-03-15T23:57:28.566Z,80.85
2018-03-15T23:59:56.865Z,81.00
